SCO27CD EGPF-EGPA
Flight info
| Callsign | SCO27CD |
|---|---|
| Flight time | 0h 55m |
| Altitude | 20000 |
| Route | FOYLE N560 NESDI DCT RIMOL DCT BONBY DCT WIK DCT KOKAL |
| Aircraft | AT46/M-SDFGIRY/S |
Departure
| Time | 2026-04-21 13:13 |
|---|---|
| Airport | Glasgow Airport (EGPF) |
Arrival
| Time | 2026-04-21 14:09 |
|---|---|
| Airport | Kirkwall Airport (EGPA) |
| Time | Latitude | Longitude | Altitude | Speed | Heading |
|---|---|---|---|---|---|
| 2026-04-21 13:01 | 55.86457 | -4.44088 | 30 ft | 0 kts | 242° |
| 2026-04-21 13:05 | 55.86464 | -4.44067 | 30 ft | 3 kts | 242° |
| 2026-04-21 13:05 | 55.86473 | -4.44037 | 29 ft | 3 kts | 242° |
| 2026-04-21 13:05 | 55.86482 | -4.44008 | 29 ft | 3 kts | 242° |
| 2026-04-21 13:06 | 55.86491 | -4.43977 | 29 ft | 3 kts | 242° |
| 2026-04-21 13:06 | 55.86500 | -4.43947 | 28 ft | 3 kts | 242° |
| 2026-04-21 13:06 | 55.86504 | -4.43934 | 28 ft | 0 kts | 242° |
| 2026-04-21 13:10 | 55.86523 | -4.44000 | 28 ft | 15 kts | 319° |
| 2026-04-21 13:10 | 55.86529 | -4.44134 | 29 ft | 19 kts | 225° |
| 2026-04-21 13:10 | 55.86417 | -4.44339 | 29 ft | 26 kts | 226° |
| 2026-04-21 13:11 | 55.86304 | -4.44548 | 27 ft | 21 kts | 226° |
| 2026-04-21 13:11 | 55.86249 | -4.44718 | 27 ft | 14 kts | 297° |
| 2026-04-21 13:11 | 55.86292 | -4.44778 | 28 ft | 0 kts | 319° |
| 2026-04-21 13:12 | 55.86334 | -4.44845 | 30 ft | 18 kts | 322° |
| 2026-04-21 13:13 | 55.86468 | -4.44672 | 33 ft | 51 kts | 47° |
| 2026-04-21 13:13 | 55.86880 | -4.43928 | 38 ft | 110 kts | 47° |
| 2026-04-21 13:13 | 55.87422 | -4.42997 | 688 ft | 108 kts | 46° |
| 2026-04-21 13:13 | 55.87972 | -4.42115 | 1557 ft | 109 kts | 49° |
| 2026-04-21 13:14 | 55.88620 | -4.41037 | 1978 ft | 143 kts | 48° |
| 2026-04-21 13:14 | 55.89357 | -4.39776 | 2807 ft | 144 kts | 49° |
| 2026-04-21 13:14 | 55.90148 | -4.38622 | 3640 ft | 151 kts | 46° |
| 2026-04-21 13:14 | 55.90937 | -4.37041 | 3759 ft | 194 kts | 56° |
| 2026-04-21 13:15 | 55.91802 | -4.34922 | 3733 ft | 226 kts | 58° |
| 2026-04-21 13:15 | 55.92736 | -4.32533 | 3735 ft | 238 kts | 58° |
| 2026-04-21 13:15 | 55.93749 | -4.30205 | 3713 ft | 241 kts | 45° |
| 2026-04-21 13:15 | 55.95303 | -4.29041 | 3701 ft | 252 kts | 11° |
| 2026-04-21 13:16 | 55.97045 | -4.29635 | 3691 ft | 264 kts | 338° |
| 2026-04-21 13:16 | 55.98408 | -4.31832 | 3691 ft | 268 kts | 308° |
| 2026-04-21 13:16 | 55.99448 | -4.34573 | 3712 ft | 267 kts | 308° |
| 2026-04-21 13:16 | 56.00547 | -4.37235 | 3696 ft | 265 kts | 314° |
| 2026-04-21 13:17 | 56.01863 | -4.39505 | 3712 ft | 262 kts | 326° |
| 2026-04-21 13:17 | 56.03443 | -4.40891 | 3693 ft | 250 kts | 355° |
| 2026-04-21 13:17 | 56.05142 | -4.40808 | 3699 ft | 243 kts | 13° |
| 2026-04-21 13:17 | 56.06801 | -4.40319 | 3877 ft | 236 kts | 15° |
| 2026-04-21 13:18 | 56.08387 | -4.39823 | 4326 ft | 229 kts | 15° |
| 2026-04-21 13:18 | 56.09952 | -4.39374 | 4928 ft | 225 kts | 15° |
| 2026-04-21 13:18 | 56.11495 | -4.38949 | 5500 ft | 226 kts | 14° |
| 2026-04-21 13:18 | 56.13080 | -4.38517 | 5807 ft | 236 kts | 14° |
| 2026-04-21 13:19 | 56.14755 | -4.38053 | 5926 ft | 251 kts | 14° |
| 2026-04-21 13:19 | 56.16532 | -4.37616 | 5964 ft | 263 kts | 12° |
| 2026-04-21 13:19 | 56.18367 | -4.37201 | 6125 ft | 265 kts | 12° |
| 2026-04-21 13:19 | 56.20140 | -4.36811 | 6779 ft | 250 kts | 12° |
| 2026-04-21 13:20 | 56.21858 | -4.36458 | 7366 ft | 247 kts | 12° |
| 2026-04-21 13:20 | 56.23564 | -4.36083 | 7906 ft | 247 kts | 13° |
| 2026-04-21 13:20 | 56.25264 | -4.35684 | 8408 ft | 246 kts | 13° |
| 2026-04-21 13:20 | 56.26961 | -4.35275 | 8948 ft | 246 kts | 12° |
| 2026-04-21 13:21 | 56.28659 | -4.34871 | 9505 ft | 246 kts | 12° |
| 2026-04-21 13:21 | 56.30365 | -4.34474 | 10053 ft | 248 kts | 13° |
| 2026-04-21 13:21 | 56.32088 | -4.34065 | 10562 ft | 251 kts | 13° |
| 2026-04-21 13:21 | 56.33826 | -4.33652 | 11049 ft | 253 kts | 13° |
| 2026-04-21 13:22 | 56.35579 | -4.33242 | 11525 ft | 254 kts | 12° |
| 2026-04-21 13:22 | 56.37310 | -4.32832 | 12014 ft | 255 kts | 13° |
| 2026-04-21 13:22 | 56.39070 | -4.32418 | 12499 ft | 255 kts | 13° |
| 2026-04-21 13:22 | 56.40836 | -4.31999 | 12981 ft | 256 kts | 13° |
| 2026-04-21 13:23 | 56.42602 | -4.31576 | 13456 ft | 256 kts | 13° |
| 2026-04-21 13:23 | 56.44370 | -4.31157 | 13939 ft | 257 kts | 13° |
| 2026-04-21 13:23 | 56.46143 | -4.30736 | 14404 ft | 258 kts | 13° |
| 2026-04-21 13:23 | 56.47927 | -4.30313 | 14798 ft | 259 kts | 13° |
| 2026-04-21 13:24 | 56.49721 | -4.29885 | 15201 ft | 260 kts | 13° |
| 2026-04-21 13:24 | 56.51516 | -4.29456 | 15615 ft | 260 kts | 13° |
| 2026-04-21 13:24 | 56.53311 | -4.29030 | 16031 ft | 260 kts | 13° |
| 2026-04-21 13:24 | 56.55112 | -4.28597 | 16414 ft | 262 kts | 13° |
| 2026-04-21 13:25 | 56.56914 | -4.28167 | 16793 ft | 262 kts | 13° |
| 2026-04-21 13:25 | 56.58722 | -4.27732 | 17178 ft | 262 kts | 13° |
| 2026-04-21 13:25 | 56.60527 | -4.27299 | 17530 ft | 263 kts | 13° |
| 2026-04-21 13:25 | 56.62344 | -4.26865 | 17878 ft | 263 kts | 13° |
| 2026-04-21 13:26 | 56.64160 | -4.26430 | 18199 ft | 264 kts | 13° |
| 2026-04-21 13:26 | 56.65980 | -4.25990 | 18542 ft | 264 kts | 13° |
| 2026-04-21 13:26 | 56.67796 | -4.25555 | 18861 ft | 264 kts | 12° |
| 2026-04-21 13:26 | 56.69622 | -4.25122 | 19104 ft | 265 kts | 13° |
| 2026-04-21 13:27 | 56.71453 | -4.24683 | 19362 ft | 266 kts | 13° |
| 2026-04-21 13:27 | 56.73287 | -4.24228 | 19624 ft | 266 kts | 13° |
| 2026-04-21 13:27 | 56.75129 | -4.23782 | 19834 ft | 269 kts | 13° |
| 2026-04-21 13:27 | 56.76998 | -4.23330 | 19929 ft | 274 kts | 13° |
| 2026-04-21 13:28 | 56.78885 | -4.22875 | 19980 ft | 280 kts | 12° |
| 2026-04-21 13:28 | 56.80839 | -4.22400 | 19998 ft | 286 kts | 12° |
| 2026-04-21 13:28 | 56.82827 | -4.21916 | 20001 ft | 290 kts | 12° |
| 2026-04-21 13:28 | 56.84841 | -4.21427 | 20016 ft | 294 kts | 12° |
| 2026-04-21 13:29 | 56.86902 | -4.20924 | 20013 ft | 297 kts | 12° |
| 2026-04-21 13:29 | 56.88942 | -4.20432 | 20014 ft | 303 kts | 12° |
| 2026-04-21 13:29 | 56.91046 | -4.19926 | 20013 ft | 307 kts | 12° |
| 2026-04-21 13:29 | 56.93173 | -4.19398 | 20011 ft | 310 kts | 12° |
| 2026-04-21 13:30 | 56.95321 | -4.18864 | 20023 ft | 313 kts | 12° |
| 2026-04-21 13:30 | 56.97487 | -4.18340 | 20000 ft | 315 kts | 12° |
| 2026-04-21 13:30 | 56.99668 | -4.17794 | 19967 ft | 317 kts | 12° |
| 2026-04-21 13:30 | 57.01859 | -4.17269 | 19985 ft | 317 kts | 12° |
| 2026-04-21 13:31 | 57.04020 | -4.16731 | 20007 ft | 309 kts | 12° |
| 2026-04-21 13:31 | 57.06127 | -4.16215 | 20020 ft | 302 kts | 12° |
| 2026-04-21 13:31 | 57.08175 | -4.15714 | 20012 ft | 293 kts | 12° |
| 2026-04-21 13:31 | 57.10184 | -4.15223 | 20018 ft | 290 kts | 12° |
| 2026-04-21 13:32 | 57.12163 | -4.14737 | 20021 ft | 284 kts | 12° |
| 2026-04-21 13:32 | 57.14103 | -4.14257 | 20024 ft | 279 kts | 12° |
| 2026-04-21 13:32 | 57.16017 | -4.13779 | 20028 ft | 276 kts | 12° |
| 2026-04-21 13:32 | 57.17908 | -4.13311 | 20029 ft | 273 kts | 12° |
| 2026-04-21 13:33 | 57.19780 | -4.12846 | 20030 ft | 271 kts | 12° |
| 2026-04-21 13:33 | 57.21639 | -4.12384 | 20032 ft | 269 kts | 12° |
| 2026-04-21 13:33 | 57.23489 | -4.11926 | 20034 ft | 268 kts | 12° |
| 2026-04-21 13:33 | 57.25344 | -4.11464 | 20041 ft | 270 kts | 12° |
| 2026-04-21 13:34 | 57.27211 | -4.10997 | 20044 ft | 272 kts | 12° |
| 2026-04-21 13:34 | 57.29093 | -4.10528 | 20043 ft | 274 kts | 12° |
| 2026-04-21 13:34 | 57.30979 | -4.10056 | 20049 ft | 275 kts | 12° |
| 2026-04-21 13:34 | 57.32875 | -4.09583 | 20049 ft | 275 kts | 12° |
| 2026-04-21 13:35 | 57.34775 | -4.09107 | 20042 ft | 276 kts | 12° |
| 2026-04-21 13:35 | 57.36678 | -4.08631 | 20052 ft | 276 kts | 12° |
| 2026-04-21 13:35 | 57.38583 | -4.08153 | 20051 ft | 276 kts | 12° |
| 2026-04-21 13:35 | 57.40488 | -4.07676 | 20051 ft | 277 kts | 12° |
| 2026-04-21 13:36 | 57.42395 | -4.07198 | 20052 ft | 277 kts | 12° |
| 2026-04-21 13:36 | 57.44306 | -4.06717 | 20050 ft | 277 kts | 12° |
| 2026-04-21 13:36 | 57.46215 | -4.06234 | 20052 ft | 277 kts | 12° |
| 2026-04-21 13:36 | 57.48123 | -4.05753 | 20052 ft | 277 kts | 12° |
| 2026-04-21 13:37 | 57.50029 | -4.05274 | 20056 ft | 277 kts | 12° |
| 2026-04-21 13:37 | 57.51941 | -4.04792 | 20052 ft | 277 kts | 12° |
| 2026-04-21 13:37 | 57.53855 | -4.04382 | 20049 ft | 278 kts | 4° |
| 2026-04-21 13:37 | 57.55762 | -4.05143 | 20054 ft | 284 kts | 343° |
| 2026-04-21 13:38 | 57.57568 | -4.06676 | 20053 ft | 286 kts | 337° |
| 2026-04-21 13:38 | 57.59340 | -4.08359 | 20054 ft | 286 kts | 336° |
| 2026-04-21 13:38 | 57.61116 | -4.10035 | 20055 ft | 286 kts | 337° |
| 2026-04-21 13:38 | 57.62917 | -4.11638 | 20056 ft | 287 kts | 339° |
| 2026-04-21 13:39 | 57.64731 | -4.13183 | 20055 ft | 287 kts | 339° |
| 2026-04-21 13:39 | 57.66546 | -4.14742 | 20056 ft | 287 kts | 339° |
| 2026-04-21 13:39 | 57.68362 | -4.16312 | 20057 ft | 288 kts | 339° |
| 2026-04-21 13:39 | 57.70178 | -4.17881 | 20055 ft | 288 kts | 339° |
| 2026-04-21 13:40 | 57.71996 | -4.19453 | 20057 ft | 288 kts | 339° |
| 2026-04-21 13:40 | 57.73814 | -4.21025 | 20059 ft | 288 kts | 339° |
| 2026-04-21 13:40 | 57.75632 | -4.22598 | 20063 ft | 288 kts | 339° |
| 2026-04-21 13:40 | 57.77450 | -4.24175 | 20061 ft | 288 kts | 339° |
| 2026-04-21 13:41 | 57.79266 | -4.25752 | 20065 ft | 288 kts | 339° |
| 2026-04-21 13:41 | 57.81085 | -4.27332 | 20069 ft | 288 kts | 339° |
| 2026-04-21 13:41 | 57.82906 | -4.28917 | 20069 ft | 289 kts | 339° |
| 2026-04-21 13:41 | 57.84727 | -4.30502 | 20068 ft | 288 kts | 339° |
| 2026-04-21 13:42 | 57.86544 | -4.32084 | 20071 ft | 288 kts | 339° |
| 2026-04-21 13:42 | 57.88423 | -4.33043 | 20070 ft | 277 kts | 4° |
| 2026-04-21 13:42 | 57.90203 | -4.32164 | 20080 ft | 267 kts | 34° |
| 2026-04-21 13:42 | 57.91566 | -4.29796 | 20070 ft | 264 kts | 52° |
| 2026-04-21 13:43 | 57.92719 | -4.27110 | 20071 ft | 265 kts | 54° |
| 2026-04-21 13:43 | 57.93863 | -4.24389 | 20072 ft | 265 kts | 53° |
| 2026-04-21 13:43 | 57.95033 | -4.21703 | 20077 ft | 266 kts | 52° |
| 2026-04-21 13:43 | 57.96247 | -4.19074 | 20076 ft | 266 kts | 51° |
| 2026-04-21 13:44 | 57.97474 | -4.16463 | 20074 ft | 266 kts | 51° |
| 2026-04-21 13:44 | 57.98696 | -4.13838 | 20074 ft | 267 kts | 51° |
| 2026-04-21 13:44 | 57.99900 | -4.11239 | 20073 ft | 267 kts | 51° |
| 2026-04-21 13:44 | 58.01121 | -4.08607 | 20074 ft | 267 kts | 51° |
| 2026-04-21 13:45 | 58.02359 | -4.05935 | 20076 ft | 267 kts | 51° |
| 2026-04-21 13:45 | 58.03560 | -4.03336 | 20075 ft | 267 kts | 51° |
| 2026-04-21 13:45 | 58.04779 | -4.00701 | 20076 ft | 267 kts | 51° |
| 2026-04-21 13:45 | 58.06000 | -3.98056 | 20082 ft | 267 kts | 51° |
| 2026-04-21 13:46 | 58.07220 | -3.95417 | 20081 ft | 267 kts | 51° |
| 2026-04-21 13:46 | 58.08440 | -3.92772 | 20076 ft | 267 kts | 51° |
| 2026-04-21 13:46 | 58.09660 | -3.90125 | 20075 ft | 267 kts | 51° |
| 2026-04-21 13:46 | 58.10881 | -3.87474 | 20080 ft | 267 kts | 51° |
| 2026-04-21 13:47 | 58.12104 | -3.84817 | 20076 ft | 268 kts | 51° |
| 2026-04-21 13:47 | 58.13323 | -3.82156 | 20081 ft | 268 kts | 51° |
| 2026-04-21 13:47 | 58.14542 | -3.79493 | 20062 ft | 269 kts | 51° |
| 2026-04-21 13:47 | 58.15784 | -3.76766 | 19765 ft | 274 kts | 51° |
| 2026-04-21 13:48 | 58.17017 | -3.74024 | 19203 ft | 275 kts | 51° |
| 2026-04-21 13:48 | 58.18261 | -3.71256 | 18578 ft | 277 kts | 51° |
| 2026-04-21 13:48 | 58.19515 | -3.68479 | 17930 ft | 278 kts | 51° |
| 2026-04-21 13:48 | 58.20775 | -3.65693 | 17296 ft | 278 kts | 51° |
| 2026-04-21 13:49 | 58.22034 | -3.62910 | 16660 ft | 278 kts | 51° |
| 2026-04-21 13:49 | 58.23296 | -3.60121 | 16045 ft | 278 kts | 51° |
| 2026-04-21 13:49 | 58.24571 | -3.57366 | 15440 ft | 278 kts | 50° |
| 2026-04-21 13:49 | 58.25859 | -3.54633 | 14848 ft | 277 kts | 50° |
| 2026-04-21 13:50 | 58.27140 | -3.51899 | 14244 ft | 277 kts | 50° |
| 2026-04-21 13:50 | 58.28402 | -3.49141 | 13600 ft | 276 kts | 50° |
| 2026-04-21 13:50 | 58.29653 | -3.46385 | 12961 ft | 275 kts | 51° |
| 2026-04-21 13:50 | 58.30886 | -3.43651 | 12342 ft | 270 kts | 51° |
| 2026-04-21 13:51 | 58.32099 | -3.40957 | 11727 ft | 267 kts | 51° |
| 2026-04-21 13:51 | 58.33300 | -3.38285 | 11126 ft | 264 kts | 51° |
| 2026-04-21 13:51 | 58.34490 | -3.35643 | 10542 ft | 262 kts | 51° |
| 2026-04-21 13:51 | 58.35652 | -3.33052 | 9897 ft | 260 kts | 51° |
| 2026-04-21 13:52 | 58.36836 | -3.30412 | 9256 ft | 258 kts | 51° |
| 2026-04-21 13:52 | 58.37980 | -3.27861 | 8642 ft | 256 kts | 51° |
| 2026-04-21 13:52 | 58.39143 | -3.25258 | 8031 ft | 254 kts | 51° |
| 2026-04-21 13:52 | 58.39898 | -3.23568 | 7658 ft | 252 kts | 51° |
| 2026-04-21 13:53 | 58.41009 | -3.21086 | 7367 ft | 239 kts | 51° |
| 2026-04-21 13:53 | 58.42399 | -3.17977 | 7152 ft | 222 kts | 51° |
| 2026-04-21 13:53 | 58.43053 | -3.16515 | 7017 ft | 216 kts | 52° |
| 2026-04-21 13:53 | 58.44363 | -3.13570 | 6311 ft | 222 kts | 51° |
| 2026-04-21 13:54 | 58.45372 | -3.11313 | 5795 ft | 224 kts | 51° |
| 2026-04-21 13:54 | 58.46592 | -3.09535 | 5279 ft | 226 kts | 23° |
| 2026-04-21 13:54 | 58.47624 | -3.09035 | 4925 ft | 227 kts | 14° |
| 2026-04-21 13:54 | 58.49187 | -3.08521 | 4401 ft | 229 kts | 12° |
| 2026-04-21 13:55 | 58.50763 | -3.08049 | 3881 ft | 229 kts | 12° |
| 2026-04-21 13:55 | 58.52328 | -3.07535 | 3361 ft | 228 kts | 13° |
| 2026-04-21 13:55 | 58.53881 | -3.06947 | 2863 ft | 226 kts | 14° |
| 2026-04-21 13:55 | 58.55384 | -3.06345 | 2606 ft | 215 kts | 14° |
| 2026-04-21 13:56 | 58.56799 | -3.05780 | 2495 ft | 201 kts | 14° |
| 2026-04-21 13:56 | 58.58174 | -3.05240 | 2449 ft | 203 kts | 14° |
| 2026-04-21 13:56 | 58.59542 | -3.04697 | 2423 ft | 203 kts | 14° |
| 2026-04-21 13:56 | 58.60948 | -3.04136 | 2456 ft | 204 kts | 14° |
| 2026-04-21 13:57 | 58.62343 | -3.03570 | 2425 ft | 206 kts | 15° |
| 2026-04-21 13:57 | 58.63726 | -3.02999 | 2397 ft | 205 kts | 15° |
| 2026-04-21 13:57 | 58.65122 | -3.02429 | 2402 ft | 205 kts | 15° |
| 2026-04-21 13:57 | 58.66514 | -3.01869 | 2383 ft | 204 kts | 14° |
| 2026-04-21 13:58 | 58.67894 | -3.01321 | 2376 ft | 203 kts | 14° |
| 2026-04-21 13:58 | 58.69282 | -3.00770 | 2326 ft | 204 kts | 14° |
| 2026-04-21 13:58 | 58.70673 | -3.00234 | 2306 ft | 203 kts | 14° |
| 2026-04-21 13:58 | 58.72058 | -2.99688 | 2303 ft | 203 kts | 15° |
| 2026-04-21 13:59 | 58.73441 | -2.99139 | 2298 ft | 203 kts | 15° |
| 2026-04-21 13:59 | 58.74823 | -2.98584 | 2298 ft | 203 kts | 14° |
| 2026-04-21 13:59 | 58.76206 | -2.98034 | 2293 ft | 202 kts | 14° |
| 2026-04-21 13:59 | 58.77581 | -2.97481 | 2298 ft | 201 kts | 15° |
| 2026-04-21 14:00 | 58.78952 | -2.96929 | 2295 ft | 201 kts | 14° |
| 2026-04-21 14:00 | 58.80321 | -2.96368 | 2296 ft | 201 kts | 14° |
| 2026-04-21 14:00 | 58.81696 | -2.95822 | 2303 ft | 202 kts | 15° |
| 2026-04-21 14:00 | 58.83070 | -2.95273 | 2297 ft | 202 kts | 13° |
| 2026-04-21 14:01 | 58.84454 | -2.95531 | 2289 ft | 208 kts | 337° |
| 2026-04-21 14:01 | 58.85432 | -2.97526 | 2292 ft | 208 kts | 296° |
| 2026-04-21 14:01 | 58.85634 | -3.00227 | 2301 ft | 200 kts | 273° |
| 2026-04-21 14:01 | 58.85642 | -3.02877 | 2288 ft | 195 kts | 271° |
| 2026-04-21 14:02 | 58.85617 | -3.05471 | 2290 ft | 191 kts | 270° |
| 2026-04-21 14:02 | 58.85572 | -3.08010 | 2293 ft | 188 kts | 269° |
| 2026-04-21 14:02 | 58.85684 | -3.10438 | 2295 ft | 177 kts | 298° |
| 2026-04-21 14:03 | 58.87607 | -3.12536 | 2300 ft | 162 kts | 347° |
| 2026-04-21 14:03 | 58.88682 | -3.13180 | 2299 ft | 161 kts | 348° |
| 2026-04-21 14:03 | 58.89747 | -3.13792 | 2310 ft | 163 kts | 347° |
| 2026-04-21 14:03 | 58.90827 | -3.14491 | 2311 ft | 165 kts | 342° |
| 2026-04-21 14:04 | 58.91897 | -3.15421 | 2285 ft | 167 kts | 338° |
| 2026-04-21 14:04 | 58.92913 | -3.16423 | 2300 ft | 162 kts | 343° |
| 2026-04-21 14:04 | 58.93921 | -3.16237 | 2312 ft | 143 kts | 39° |
| 2026-04-21 14:04 | 58.94193 | -3.14582 | 2302 ft | 134 kts | 100° |
| 2026-04-21 14:05 | 58.94125 | -3.12898 | 2280 ft | 122 kts | 70° |
| 2026-04-21 14:05 | 58.94421 | -3.11409 | 2302 ft | 118 kts | 70° |
| 2026-04-21 14:05 | 58.94680 | -3.09905 | 2298 ft | 117 kts | 71° |
| 2026-04-21 14:05 | 58.94922 | -3.08382 | 2204 ft | 120 kts | 73° |
| 2026-04-21 14:06 | 58.95123 | -3.06796 | 2011 ft | 122 kts | 76° |
| 2026-04-21 14:06 | 58.95285 | -3.05171 | 1825 ft | 123 kts | 78° |
| 2026-04-21 14:06 | 58.95424 | -3.03514 | 1611 ft | 125 kts | 80° |
| 2026-04-21 14:06 | 58.95534 | -3.01848 | 1424 ft | 122 kts | 83° |
| 2026-04-21 14:07 | 58.95577 | -3.00229 | 1226 ft | 119 kts | 85° |
| 2026-04-21 14:07 | 58.95603 | -2.98650 | 1029 ft | 115 kts | 86° |
| 2026-04-21 14:07 | 58.95626 | -2.97111 | 851 ft | 114 kts | 85° |
| 2026-04-21 14:07 | 58.95663 | -2.95583 | 643 ft | 112 kts | 84° |
| 2026-04-21 14:08 | 58.95707 | -2.94070 | 446 ft | 114 kts | 84° |
| 2026-04-21 14:08 | 58.95745 | -2.92543 | 292 ft | 113 kts | 82° |
| 2026-04-21 14:08 | 58.95782 | -2.91013 | 111 ft | 113 kts | 83° |
| 2026-04-21 14:08 | 58.95816 | -2.89551 | 46 ft | 94 kts | 83° |
| 2026-04-21 14:09 | 58.95838 | -2.88912 | 43 ft | 0 kts | 113° |
| 2026-04-21 14:09 | 58.95838 | -2.88913 | 43 ft | 0 kts | 119° |
| 2026-04-21 14:09 | 58.95835 | -2.88912 | 43 ft | 1 kts | 162° |
| 2026-04-21 14:09 | 58.95822 | -2.89039 | 42 ft | 24 kts | 271° |
| 2026-04-21 14:10 | 58.95771 | -2.89371 | 45 ft | 22 kts | 217° |
| 2026-04-21 14:10 | 58.95629 | -2.89618 | 48 ft | 26 kts | 222° |
| 2026-04-21 14:10 | 58.95528 | -2.89796 | 53 ft | 13 kts | 222° |
| 2026-04-21 14:10 | 58.95472 | -2.89895 | 55 ft | 4 kts | 224° |
| 2026-04-21 14:11 | 58.95430 | -2.90035 | 56 ft | 13 kts | 241° |
| 2026-04-21 14:11 | 58.95397 | -2.90058 | 52 ft | 0 kts | 178° |